Time;durP1;ratioP1;P1;durP2;ratioP2;P2;SDS_P1;SDS_P2;PMS_P1;PMS_P2;Temp;Humidity;BMP_temperature;BMP_pressure;BME280_temperature;BME280_humidity;BME280_pressure;Samples;Min_cycle;Max_cycle;Signal;HPM_P1;HPM_P2
2022/10/20 00:00:22;;;;;;;;;17.33;15.00;;;;;18.13;81.53;100570.41;5012639;28;45434;-60
2022/10/20 00:02:48;;;;;;;;;18.33;16.00;;;;;18.13;81.68;100573.09;5017758;28;45482;-60
2022/10/20 00:05:14;;;;;;;;;16.00;14.67;;;;;18.14;81.38;100580.19;5017518;28;45456;-60
2022/10/20 00:07:39;;;;;;;;;16.00;14.33;;;;;18.12;81.56;100584.00;4999622;28;46500;-60
2022/10/20 00:10:05;;;;;;;;;15.00;13.33;;;;;18.13;81.44;100588.41;5017270;28;45414;-60
2022/10/20 00:12:30;;;;;;;;;17.67;17.00;;;;;18.16;81.62;100596.19;5016936;28;45392;-59
2022/10/20 00:14:56;;;;;;;;;19.00;19.00;;;;;18.16;81.50;100580.91;5016776;28;45538;-60
2022/10/20 00:17:21;;;;;;;;;18.00;16.00;;;;;18.17;81.80;100587.13;5007937;28;46284;-60
2022/10/20 00:19:47;;;;;;;;;18.67;15.67;;;;;18.19;81.45;100588.69;5006465;28;45772;-61
2022/10/20 00:22:13;;;;;;;;;15.67;11.33;;;;;18.21;81.52;100586.72;5017483;28;45249;-60
2022/10/20 00:24:38;;;;;;;;;19.00;16.67;;;;;18.19;81.67;100586.00;5017583;28;45331;-59
2022/10/20 00:27:04;;;;;;;;;18.67;16.33;;;;;18.21;81.27;100581.34;5017236;28;48048;-59
2022/10/20 00:29:29;;;;;;;;;21.67;18.33;;;;;18.20;81.68;100576.94;5017102;28;45417;-60
2022/10/20 00:31:55;;;;;;;;;21.67;17.67;;;;;18.19;81.30;100571.69;5020558;28;45449;-60
2022/10/20 00:34:20;;;;;;;;;18.00;18.00;;;;;18.23;81.24;100568.63;5016488;28;45820;-61
2022/10/20 00:36:45;;;;;;;;;19.67;14.67;;;;;18.25;81.02;100565.78;5008371;28;45529;-61
2022/10/20 00:39:11;;;;;;;;;18.00;16.00;;;;;18.23;81.00;100560.53;5018777;28;45664;-60
2022/10/20 00:41:36;;;;;;;;;15.00;11.00;;;;;18.23;80.92;100567.78;5017589;28;45424;-60
2022/10/20 00:44:40;;;;;;;;;22.33;16.33;;;;;18.19;81.24;100572.53;5016333;28;45430;-61
2022/10/20 00:47:13;;;;;;;;;21.00;18.33;;;;;18.13;81.15;100556.94;5008700;28;45431;-61
2022/10/20 00:49:39;;;;;;;;;20.33;17.00;;;;;18.16;81.29;100567.44;5017183;28;45327;-60
2022/10/20 00:52:06;;;;;;;;;15.67;15.00;;;;;18.17;81.60;100558.38;5001893;28;45644;-60
2022/10/20 00:54:32;;;;;;;;;18.00;16.67;;;;;18.19;81.13;100550.16;5014842;28;45452;-60
2022/10/20 00:56:58;;;;;;;;;19.33;16.33;;;;;18.23;81.32;100559.69;5015365;28;46695;-59
2022/10/20 00:59:31;;;;;;;;;16.00;14.67;;;;;18.14;81.23;100542.50;5016549;28;45439;-59
2022/10/20 01:01:59;;;;;;;;;21.00;17.67;;;;;18.19;81.01;100561.78;5019150;28;45760;-60
2022/10/20 01:04:28;;;;;;;;;21.00;17.33;;;;;18.21;81.17;100546.34;5015781;28;45473;-61
2022/10/20 01:06:54;;;;;;;;;16.00;16.00;;;;;18.21;80.94;100550.88;5015926;28;45336;-60
2022/10/20 01:09:19;;;;;;;;;19.00;14.33;;;;;18.19;81.25;100545.63;5011895;28;45694;-59
2022/10/20 01:11:54;;;;;;;;;17.00;16.00;;;;;18.21;81.29;100542.78;5015210;28;45489;-60
2022/10/20 01:14:40;;;;;;;;;20.33;18.00;;;;;18.23;80.94;100541.69;5000823;28;45383;-60
2022/10/20 01:17:36;;;;;;;;;15.33;15.33;;;;;18.19;81.07;100540.25;5015155;28;45494;-59
2022/10/20 01:20:10;;;;;;;;;23.00;20.33;;;;;18.17;81.31;100544.91;5015854;28;46952;-60
2022/10/20 01:22:54;;;;;;;;;17.00;17.00;;;;;18.19;81.07;100544.78;5014875;28;45465;-60
2022/10/20 01:25:44;;;;;;;;;17.00;16.00;;;;;18.13;81.53;100546.19;4998746;28;45171;-60
2022/10/20 01:28:37;;;;;;;;;16.67;16.67;;;;;18.07;81.58;100541.34;5012179;28;46054;-59
2022/10/20 01:31:16;;;;;;;;;16.00;16.00;;;;;18.10;81.51;100551.84;5004258;28;45430;-59
2022/10/20 01:33:53;;;;;;;;;16.00;15.00;;;;;18.07;81.71;100573.63;5005066;28;45243;-59
2022/10/20 01:36:40;;;;;;;;;17.00;12.67;;;;;18.01;81.67;100562.56;5015629;28;45256;-58
2022/10/20 01:39:11;;;;;;;;;17.33;17.33;;;;;18.02;81.76;100553.50;5012821;28;46106;-59
2022/10/20 01:41:46;;;;;;;;;15.33;12.67;;;;;17.96;82.07;100546.78;5012278;28;45269;-60
2022/10/20 01:44:15;;;;;;;;;13.33;13.33;;;;;17.86;81.87;100532.47;5015566;28;45551;-59
2022/10/20 01:46:43;;;;;;;;;16.67;16.67;;;;;17.89;82.47;100556.41;5015590;28;45526;-60
2022/10/20 01:49:11;;;;;;;;;13.00;13.00;;;;;17.88;82.71;100584.31;5014870;28;46410;-59
2022/10/20 01:51:36;;;;;;;;;17.67;16.00;;;;;17.89;82.16;100602.16;5014975;28;45233;-59
2022/10/20 01:54:02;;;;;;;;;16.00;16.00;;;;;17.82;82.71;100609.88;5014326;28;45332;-59
2022/10/20 01:56:50;;;;;;;;;16.00;16.00;;;;;17.79;82.70;100585.09;5015948;28;45423;-59
2022/10/20 01:59:25;;;;;;;;;11.67;11.67;;;;;17.86;82.72;100611.34;5009553;28;46378;-59
2022/10/20 02:01:53;;;;;;;;;15.00;14.00;;;;;17.86;82.84;100614.03;5015637;28;45427;-59
2022/10/20 02:04:32;;;;;;;;;12.67;12.67;;;;;17.88;82.61;100603.13;5014824;28;45288;-60
2022/10/20 02:07:09;;;;;;;;;15.67;13.00;;;;;17.80;82.29;100566.13;5015067;28;45439;-59
2022/10/20 02:09:42;;;;;;;;;14.33;14.33;;;;;17.87;82.54;100566.47;5009391;28;46087;-59
2022/10/20 02:12:20;;;;;;;;;12.67;12.33;;;;;17.86;82.68;100544.09;5013273;28;45458;-59
2022/10/20 02:14:47;;;;;;;;;15.00;12.67;;;;;17.85;83.48;100545.06;5015129;28;45588;-59
2022/10/20 02:17:15;;;;;;;;;15.33;12.33;;;;;17.84;83.71;100529.03;5010689;28;45486;-59
2022/10/20 02:19:42;;;;;;;;;12.67;12.33;;;;;17.87;83.60;100531.47;5014558;28;45447;-60
2022/10/20 02:22:10;;;;;;;;;16.00;13.33;;;;;17.87;84.16;100518.03;5014601;28;45261;-59
2022/10/20 02:24:41;;;;;;;;;15.33;11.33;;;;;17.83;84.36;100495.06;5015157;28;45504;-59
2022/10/20 02:27:21;;;;;;;;;12.00;9.67;;;;;17.86;83.77;100489.44;5016861;28;45606;-59
2022/10/20 02:29:53;;;;;;;;;12.67;11.67;;;;;17.89;83.95;100494.53;5015102;28;45542;-60
2022/10/20 02:32:20;;;;;;;;;10.67;9.00;;;;;17.94;83.47;100511.09;5013907;28;45391;-60
2022/10/20 02:34:46;;;;;;;;;11.33;10.00;;;;;18.01;83.39;100514.13;5011509;28;46951;-59
2022/10/20 02:37:12;;;;;;;;;10.33;9.33;;;;;18.07;83.05;100495.59;5018272;28;45394;-60
2022/10/20 02:39:37;;;;;;;;;10.00;9.33;;;;;18.11;82.62;100472.81;5018339;28;45421;-60
2022/10/20 02:42:03;;;;;;;;;13.67;9.33;;;;;18.18;82.68;100441.66;5019253;28;45339;-61
2022/10/20 02:44:28;;;;;;;;;9.00;8.00;;;;;18.20;82.25;100436.97;5018063;28;45545;-59
2022/10/20 02:46:53;;;;;;;;;8.00;6.33;;;;;18.23;82.09;100417.88;5018856;28;45593;-59
2022/10/20 02:49:20;;;;;;;;;8.67;6.33;;;;;18.28;81.81;100412.91;5015291;28;45955;-60
2022/10/20 02:51:45;;;;;;;;;8.00;6.67;;;;;18.28;81.09;100420.97;5018042;28;45450;-59
2022/10/20 02:54:11;;;;;;;;;10.33;7.67;;;;;18.38;81.22;100428.22;5018263;28;45443;-60
2022/10/20 02:56:36;;;;;;;;;6.33;5.33;;;;;18.30;81.02;100407.38;5018406;28;45527;-59
2022/10/20 02:59:01;;;;;;;;;9.67;7.00;;;;;18.43;80.63;100428.66;5021397;28;45451;-59
2022/10/20 03:01:27;;;;;;;;;7.00;6.00;;;;;18.46;80.29;100431.06;5027949;28;45611;-60
2022/10/20 03:03:57;;;;;;;;;8.33;6.33;;;;;18.49;79.86;100428.06;5018320;28;45304;-59
2022/10/20 03:06:22;;;;;;;;;8.00;6.00;;;;;18.51;79.65;100442.28;5015884;28;45442;-60
2022/10/20 03:08:48;;;;;;;;;8.00;6.00;;;;;18.54;79.26;100450.06;5016024;28;46654;-60
2022/10/20 03:11:14;;;;;;;;;9.33;5.00;;;;;18.58;79.44;100455.03;5016519;28;45549;-59
2022/10/20 03:13:39;;;;;;;;;5.00;5.00;;;;;18.61;78.91;100459.28;5016775;28;45438;-59
2022/10/20 03:16:05;;;;;;;;;7.67;5.00;;;;;18.65;79.00;100471.53;5016631;28;45613;-60
2022/10/20 03:18:30;;;;;;;;;4.33;4.33;;;;;18.66;78.71;100473.22;5016622;28;46213;-60
2022/10/20 03:20:56;;;;;;;;;6.33;6.33;;;;;18.65;79.14;100466.13;5018002;28;45404;-59
2022/10/20 03:23:21;;;;;;;;;6.67;4.67;;;;;18.68;79.16;100470.38;5015194;28;45263;-59
2022/10/20 03:25:47;;;;;;;;;5.33;4.67;;;;;18.68;79.37;100465.84;5001872;28;45468;-60
2022/10/20 03:28:12;;;;;;;;;6.33;6.33;;;;;18.68;80.19;100473.94;5017469;28;46437;-59
2022/10/20 03:30:38;;;;;;;;;10.00;7.00;;;;;18.67;80.30;100458.75;5015820;28;45671;-60
2022/10/20 03:33:03;;;;;;;;;9.00;7.00;;;;;18.65;80.79;100467.97;5016913;28;45305;-60
2022/10/20 03:35:29;;;;;;;;;7.00;6.00;;;;;18.67;80.97;100484.84;5017648;28;45609;-59
2022/10/20 03:37:54;;;;;;;;;5.33;5.33;;;;;18.58;81.15;100467.63;5016359;28;46366;-59
2022/10/20 03:40:20;;;;;;;;;4.67;4.67;;;;;18.65;81.30;100487.69;5018035;28;45225;-60
2022/10/20 03:42:45;;;;;;;;;7.00;6.00;;;;;18.64;81.67;100485.97;5003498;28;45399;-60
2022/10/20 03:45:10;;;;;;;;;6.33;6.33;;;;;18.58;82.12;100475.72;5017474;28;45530;-60
2022/10/20 03:47:36;;;;;;;;;7.00;7.00;;;;;18.61;81.98;100483.50;5017185;28;45493;-62
2022/10/20 03:50:02;;;;;;;;;9.33;6.67;;;;;18.60;82.32;100495.28;5016436;28;45277;-61
2022/10/20 03:52:28;;;;;;;;;10.00;7.00;;;;;18.57;81.69;100500.94;5017717;28;45421;-60
2022/10/20 03:54:53;;;;;;;;;6.67;6.33;;;;;18.51;82.09;100510.44;5016375;28;45519;-59
2022/10/20 03:57:19;;;;;;;;;5.00;4.00;;;;;18.53;83.17;100516.56;5015435;28;46346;-59
2022/10/20 03:59:45;;;;;;;;;6.33;6.33;;;;;18.50;82.49;100510.59;5002274;28;45467;-61
2022/10/20 04:02:31;;;;;;;;;5.67;5.67;;;;;18.52;83.62;100516.69;5015989;28;45499;-61
2022/10/20 04:04:56;;;;;;;;;10.67;7.33;;;;;18.48;84.10;100518.78;5018709;28;45926;-60
2022/10/20 04:07:22;;;;;;;;;7.33;6.00;;;;;18.47;84.47;100529.69;5027248;28;46048;-60
2022/10/20 04:09:47;;;;;;;;;5.00;3.33;;;;;18.43;84.96;100520.22;5016556;28;45431;-60
2022/10/20 04:12:12;;;;;;;;;7.33;5.33;;;;;18.40;86.01;100504.34;5017779;28;45331;-60
2022/10/20 04:14:39;;;;;;;;;7.33;6.67;;;;;18.36;88.44;100487.59;5012721;28;45568;-61
2022/10/20 04:17:05;;;;;;;;;9.67;8.33;;;;;18.23;92.77;100466.31;5015012;28;45598;-60
2022/10/20 04:19:30;;;;;;;;;10.33;8.00;;;;;18.16;98.03;100481.31;5016540;28;45328;-59
2022/10/20 04:21:56;;;;;;;;;11.00;9.33;;;;;17.98;100.00;100467.66;5012461;28;45455;-60
2022/10/20 04:24:21;;;;;;;;;9.00;9.00;;;;;17.86;100.00;100454.47;5012354;28;45355;-59
2022/10/20 04:26:47;;;;;;;;;7.67;7.67;;;;;17.90;100.00;100469.31;5016297;28;45419;-59
2022/10/20 04:29:13;;;;;;;;;13.00;11.33;;;;;17.84;100.00;100459.97;5015641;28;45486;-59
2022/10/20 04:31:38;;;;;;;;;13.00;9.33;;;;;17.77;100.00;100457.94;5015698;28;45457;-58
2022/10/20 04:34:03;;;;;;;;;11.00;9.33;;;;;17.78;100.00;100452.44;5016529;28;45548;-59
2022/10/20 04:36:28;;;;;;;;;10.00;10.00;;;;;17.70;100.00;100452.25;5017137;28;46232;-59
2022/10/20 04:38:54;;;;;;;;;11.33;8.00;;;;;17.76;100.00;100465.16;5017610;28;46303;-58
2022/10/20 04:41:19;;;;;;;;;12.00;12.00;;;;;17.74;100.00;100488.66;5032247;28;45443;-59
2022/10/20 04:43:50;;;;;;;;;11.67;11.33;;;;;17.71;100.00;100485.38;5015998;28;45815;-59
2022/10/20 04:46:15;;;;;;;;;18.00;15.00;;;;;17.66;100.00;100478.53;5022355;28;45434;-59
2022/10/20 04:48:43;;;;;;;;;12.67;10.00;;;;;17.73;100.00;100481.59;5018625;28;45246;-61
2022/10/20 04:51:11;;;;;;;;;12.33;9.33;;;;;17.73;100.00;100475.34;5017183;28;45506;-60
2022/10/20 04:53:36;;;;;;;;;7.33;7.33;;;;;17.71;100.00;100474.59;5017410;28;45553;-59
2022/10/20 04:56:03;;;;;;;;;10.00;9.00;;;;;17.73;100.00;100469.97;5015802;28;46439;-64
2022/10/20 04:58:29;;;;;;;;;10.00;9.00;;;;;17.75;100.00;100470.69;5014943;28;45342;-58
2022/10/20 05:01:06;;;;;;;;;10.00;8.00;;;;;17.74;97.30;100447.47;5032181;28;45383;-60
2022/10/20 05:03:33;;;;;;;;;8.33;7.33;;;;;17.79;96.00;100451.44;5016458;28;45443;-60
2022/10/20 05:06:07;;;;;;;;;7.00;7.00;;;;;17.76;96.84;100467.84;5014378;28;46691;-59
2022/10/20 05:08:32;;;;;;;;;11.00;9.33;;;;;17.73;94.49;100464.59;5016403;28;45486;-59
2022/10/20 05:11:00;;;;;;;;;11.00;8.00;;;;;17.80;93.96;100482.72;5014637;28;45880;-58
2022/10/20 05:13:25;;;;;;;;;8.00;7.67;;;;;17.78;93.25;100475.78;5016962;28;45413;-60
2022/10/20 05:15:52;;;;;;;;;9.00;8.00;;;;;17.81;93.07;100492.50;5016673;28;46211;-59
2022/10/20 05:18:17;;;;;;;;;8.67;8.67;;;;;17.81;93.10;100484.44;5016741;28;45802;-58
2022/10/20 05:20:42;;;;;;;;;7.33;7.33;;;;;17.89;93.00;100498.06;5015897;28;45418;-59
2022/10/20 05:23:08;;;;;;;;;15.00;10.67;;;;;17.89;92.71;100492.69;5016147;28;45601;-60
2022/10/20 05:25:36;;;;;;;;;8.00;5.33;;;;;17.89;91.62;100484.63;5016732;28;46068;-59
2022/10/20 05:28:01;;;;;;;;;11.33;7.00;;;;;17.90;91.44;100496.22;5016142;28;45437;-59
2022/10/20 05:30:27;;;;;;;;;8.00;8.00;;;;;17.91;91.33;100503.31;5022246;28;45301;-59
2022/10/20 05:32:52;;;;;;;;;8.00;6.00;;;;;17.91;91.02;100501.47;5017223;28;45441;-59
2022/10/20 05:35:17;;;;;;;;;8.67;6.00;;;;;17.90;90.24;100493.53;5016267;28;46203;-57
2022/10/20 05:37:43;;;;;;;;;7.67;7.00;;;;;17.90;90.49;100501.63;5016395;28;46120;-58
2022/10/20 05:40:09;;;;;;;;;6.67;5.67;;;;;17.86;89.59;100498.34;5016031;28;45448;-59
2022/10/20 05:42:34;;;;;;;;;5.33;5.33;;;;;17.90;89.28;100517.75;5020584;28;45606;-59
2022/10/20 05:44:59;;;;;;;;;7.33;6.67;;;;;17.86;89.02;100505.56;5016056;28;46099;-58
2022/10/20 05:47:25;;;;;;;;;4.67;4.67;;;;;17.88;89.50;100508.97;5024700;28;45490;-60
2022/10/20 05:49:50;;;;;;;;;10.33;9.00;;;;;17.87;89.37;100501.88;5036707;28;45417;-59
2022/10/20 05:52:16;;;;;;;;;8.00;7.00;;;;;17.86;89.19;100484.03;5036552;28;45597;-59
2022/10/20 05:54:41;;;;;;;;;9.67;7.00;;;;;17.83;88.81;100485.16;5035916;28;45711;-60
2022/10/20 05:57:06;;;;;;;;;10.33;9.00;;;;;17.81;89.21;100470.97;5036162;28;45219;-60
2022/10/20 05:59:32;;;;;;;;;8.67;5.67;;;;;17.86;89.15;100481.34;5023585;28;45316;-60
2022/10/20 06:01:57;;;;;;;;;6.00;5.00;;;;;17.83;88.54;100478.91;5016154;28;45499;-59
2022/10/20 06:04:23;;;;;;;;;6.33;5.00;;;;;17.84;88.19;100483.31;5014495;28;46149;-60
2022/10/20 06:06:50;;;;;;;;;5.00;5.00;;;;;17.81;88.19;100475.50;5016265;28;45288;-59
2022/10/20 06:09:17;;;;;;;;;6.00;6.00;;;;;17.78;87.66;100462.34;5016572;28;45335;-60
2022/10/20 06:11:42;;;;;;;;;5.33;3.33;;;;;17.80;87.81;100446.91;5015672;28;45456;-59
2022/10/20 06:14:08;;;;;;;;;8.00;5.33;;;;;17.75;87.69;100416.88;5016210;28;45359;-60
2022/10/20 06:16:34;;;;;;;;;5.00;3.00;;;;;17.73;87.74;100402.72;5014615;28;45389;-58
2022/10/20 06:19:00;;;;;;;;;8.00;7.00;;;;;17.75;87.92;100373.84;5015930;28;45473;-59
2022/10/20 06:21:31;;;;;;;;;8.67;6.67;;;;;17.66;87.83;100357.50;5015954;28;45581;-58
2022/10/20 06:24:00;;;;;;;;;8.00;5.00;;;;;17.61;88.07;100373.22;5015237;28;45553;-58
2022/10/20 06:26:35;;;;;;;;;6.33;5.67;;;;;17.60;87.78;100374.19;5015379;28;45519;-58
2022/10/20 06:29:02;;;;;;;;;7.67;7.00;;;;;17.57;88.12;100366.38;5015451;28;45432;-59
2022/10/20 06:31:40;;;;;;;;;8.00;6.67;;;;;17.56;88.42;100359.31;5031104;28;45308;-60
2022/10/20 06:34:08;;;;;;;;;6.00;6.00;;;;;17.50;88.00;100353.63;5015670;28;45209;-60
2022/10/20 06:36:37;;;;;;;;;5.00;5.00;;;;;17.55;88.37;100357.59;5017589;28;46817;-60
2022/10/20 06:39:04;;;;;;;;;7.33;7.00;;;;;17.49;87.73;100357.31;5020796;28;45394;-59
2022/10/20 06:41:31;;;;;;;;;8.00;6.33;;;;;17.46;88.02;100349.53;5033486;28;45217;-58
2022/10/20 06:43:58;;;;;;;;;9.33;6.67;;;;;17.49;88.28;100352.78;5014638;28;45494;-59
2022/10/20 06:46:25;;;;;;;;;5.67;5.67;;;;;17.42;89.11;100351.63;5014615;28;45405;-60
2022/10/20 06:48:51;;;;;;;;;10.33;7.00;;;;;17.44;89.01;100371.16;5010511;28;45403;-60
2022/10/20 06:51:18;;;;;;;;;6.00;5.00;;;;;17.44;89.00;100383.75;5001864;28;45610;-59
2022/10/20 06:53:45;;;;;;;;;7.33;7.33;;;;;17.46;89.78;100397.94;5014596;28;46639;-60
2022/10/20 06:56:16;;;;;;;;;7.00;7.00;;;;;17.47;89.48;100400.47;5009662;28;45498;-61
2022/10/20 06:58:43;;;;;;;;;7.00;6.00;;;;;17.47;89.37;100427.34;5003404;28;45456;-59
2022/10/20 07:01:18;;;;;;;;;11.67;9.33;;;;;17.48;89.03;100439.81;5016196;28;45471;-60
2022/10/20 07:03:46;;;;;;;;;7.67;7.00;;;;;17.48;89.04;100453.25;5004380;28;45463;-58
2022/10/20 07:06:17;;;;;;;;;7.33;7.00;;;;;17.46;88.78;100466.00;5015894;28;45222;-59
2022/10/20 07:08:43;;;;;;;;;7.00;7.00;;;;;17.47;88.65;100462.31;5021920;28;45498;-59
2022/10/20 07:11:16;;;;;;;;;7.00;5.67;;;;;17.46;88.18;100471.38;5015687;28;45474;-60
2022/10/20 07:13:42;;;;;;;;;5.00;5.00;;;;;17.47;88.54;100481.13;5015035;28;45335;-58
2022/10/20 07:16:11;;;;;;;;;6.67;4.33;;;;;17.49;87.65;100481.84;5014877;28;45392;-61
2022/10/20 07:18:36;;;;;;;;;6.00;5.00;;;;;17.46;87.92;100474.06;5014796;28;45291;-60
2022/10/20 07:21:05;;;;;;;;;9.00;6.00;;;;;17.47;88.20;100481.13;5023969;28;46580;-59
2022/10/20 07:23:32;;;;;;;;;13.00;7.00;;;;;17.46;87.83;100487.50;5037801;28;45429;-58
2022/10/20 07:26:09;;;;;;;;;6.33;5.00;;;;;17.39;87.56;100487.16;5033761;28;45257;-59
2022/10/20 07:28:36;;;;;;;;;6.33;5.00;;;;;17.38;87.61;100487.28;5034527;28;45165;-59
2022/10/20 07:31:04;;;;;;;;;6.67;6.00;;;;;17.37;87.60;100493.66;5024866;28;46672;-62
2022/10/20 07:33:29;;;;;;;;;6.00;6.00;;;;;17.36;87.88;100497.34;5018151;28;45676;-58
2022/10/20 07:35:55;;;;;;;;;11.00;6.00;;;;;17.36;87.74;100500.03;5016997;28;45453;-59
2022/10/20 07:38:20;;;;;;;;;5.67;5.67;;;;;17.36;87.85;100497.34;5000690;28;45460;-59
2022/10/20 07:40:46;;;;;;;;;8.00;6.33;;;;;17.35;87.94;100496.47;5024271;28;45360;-60
2022/10/20 07:43:11;;;;;;;;;6.00;6.00;;;;;17.35;86.93;100501.84;5018055;28;45404;-61
2022/10/20 07:45:37;;;;;;;;;6.00;4.33;;;;;17.28;87.40;100483.69;5021834;28;45399;-58
2022/10/20 07:48:05;;;;;;;;;5.00;5.00;;;;;17.36;87.63;100491.94;5036845;28;45416;-58
2022/10/20 07:50:32;;;;;;;;;4.33;3.00;;;;;17.37;86.89;100482.91;5038772;28;45511;-57
2022/10/20 07:52:57;;;;;;;;;6.67;5.00;;;;;17.38;86.21;100488.16;5028836;28;45575;-58
2022/10/20 07:55:23;;;;;;;;;9.33;4.33;;;;;17.27;86.40;100476.59;5025360;28;45441;-60
2022/10/20 07:57:49;;;;;;;;;7.00;7.00;;;;;17.38;86.26;100487.28;5038080;28;45354;-59
2022/10/20 08:00:14;;;;;;;;;7.67;5.67;;;;;17.31;86.05;100468.13;5031624;28;45888;-58
2022/10/20 08:02:40;;;;;;;;;5.00;5.00;;;;;17.43;86.20;100492.25;5017993;28;46070;-58
2022/10/20 08:05:06;;;;;;;;;7.00;5.00;;;;;17.43;86.57;100486.88;5021189;28;45483;-62
2022/10/20 08:07:33;;;;;;;;;7.67;6.33;;;;;17.47;86.26;100482.97;5032879;28;45480;-59
2022/10/20 08:09:58;;;;;;;;;8.00;5.00;;;;;17.45;85.83;100479.53;5015527;28;45430;-58
2022/10/20 08:12:24;;;;;;;;;10.33;7.00;;;;;17.47;85.73;100472.22;5030837;28;46964;-58
2022/10/20 08:14:50;;;;;;;;;6.33;5.67;;;;;17.58;86.49;100480.19;5015902;28;45330;-58
2022/10/20 08:17:16;;;;;;;;;4.00;4.00;;;;;17.67;85.48;100484.75;5014613;28;45642;-57
2022/10/20 08:19:41;;;;;;;;;6.67;6.67;;;;;17.77;85.01;100479.47;5016252;28;45881;-59
2022/10/20 08:22:07;;;;;;;;;5.00;5.00;;;;;17.85;84.19;100476.97;5015710;28;46447;-58
2022/10/20 08:24:32;;;;;;;;;8.00;6.67;;;;;17.88;83.92;100464.09;5017380;28;45534;-66
2022/10/20 08:26:59;;;;;;;;;5.00;5.00;;;;;17.89;83.17;100446.09;5016367;28;45438;-58
2022/10/20 08:29:24;;;;;;;;;5.00;5.00;;;;;18.03;82.54;100474.47;5032382;28;45284;-59
2022/10/20 08:31:49;;;;;;;;;6.00;4.67;;;;;18.10;82.49;100471.09;5015969;28;45505;-58
2022/10/20 08:34:15;;;;;;;;;10.00;6.67;;;;;18.19;82.07;100482.88;5032019;28;45389;-58
2022/10/20 08:36:40;;;;;;;;;6.00;4.00;;;;;18.22;81.28;100483.44;5017864;28;45562;-59
2022/10/20 08:39:06;;;;;;;;;6.00;6.00;;;;;18.28;81.38;100495.50;5017834;28;45573;-57
2022/10/20 08:41:36;;;;;;;;;6.67;6.67;;;;;18.37;81.49;100483.06;5017137;28;46415;-59
2022/10/20 08:44:05;;;;;;;;;5.00;5.00;;;;;18.44;80.80;100492.28;5016289;28;45533;-58
2022/10/20 08:46:33;;;;;;;;;6.00;5.67;;;;;18.46;79.78;100482.22;5021860;28;46058;-59
2022/10/20 08:49:00;;;;;;;;;4.00;4.00;;;;;18.45;79.92;100485.91;5017192;28;45550;-60
2022/10/20 08:51:31;;;;;;;;;4.33;4.33;;;;;18.43;79.71;100479.81;5016382;28;45363;-64
2022/10/20 08:53:58;;;;;;;;;7.67;6.00;;;;;18.44;79.72;100489.59;5032859;28;45473;-60
2022/10/20 08:56:27;;;;;;;;;6.00;3.00;;;;;18.45;79.06;100499.38;5025181;28;45561;-58
2022/10/20 08:58:52;;;;;;;;;4.67;4.67;;;;;18.45;79.25;100492.13;5022285;28;45577;-58
2022/10/20 09:01:28;;;;;;;;;4.67;4.00;;;;;18.51;78.83;100491.59;5015144;28;46442;-58
2022/10/20 09:04:18;;;;;;;;;3.33;3.33;;;;;18.48;79.25;100488.31;5005118;28;45530;-59
2022/10/20 09:06:49;;;;;;;;;5.00;5.00;;;;;18.58;79.45;100497.25;5016579;28;45249;-60
2022/10/20 09:09:17;;;;;;;;;4.67;4.67;;;;;18.66;78.86;100492.06;5015261;28;45442;-57
2022/10/20 09:11:43;;;;;;;;;4.00;4.00;;;;;18.66;78.72;100496.63;5016526;28;46179;-58
2022/10/20 09:14:13;;;;;;;;;4.33;4.33;;;;;18.60;79.43;100495.28;5010146;28;45731;-57
2022/10/20 09:16:41;;;;;;;;;4.67;2.00;;;;;18.52;79.14;100487.06;4996979;28;45291;-59
2022/10/20 09:19:15;;;;;;;;;4.00;4.00;;;;;18.49;79.64;100493.59;5022701;28;45525;-59
2022/10/20 09:21:43;;;;;;;;;4.33;4.00;;;;;18.50;79.95;100500.69;5016932;28;45344;-60
2022/10/20 09:24:09;;;;;;;;;5.67;5.67;;;;;18.44;79.92;100505.75;5017366;28;45266;-59
2022/10/20 09:26:39;;;;;;;;;4.00;4.00;;;;;18.44;79.95;100486.91;5015342;28;45362;-59
2022/10/20 09:29:08;;;;;;;;;5.67;4.00;;;;;18.48;78.59;100504.47;5016616;28;45594;-59
2022/10/20 09:31:43;;;;;;;;;3.67;3.67;;;;;18.51;79.11;100488.06;5017775;28;45647;-59
2022/10/20 09:34:28;;;;;;;;;3.67;3.67;;;;;18.57;79.70;100474.88;5018474;28;45364;-59
2022/10/20 09:37:03;;;;;;;;;4.00;4.00;;;;;18.65;77.98;100482.28;5012839;28;45292;-60
2022/10/20 09:39:34;;;;;;;;;3.33;3.33;;;;;18.67;78.02;100483.00;5026746;28;45442;-59
2022/10/20 09:42:13;;;;;;;;;2.00;2.00;;;;;18.77;77.75;100477.63;5003864;28;45522;-60
2022/10/20 09:44:52;;;;;;;;;3.00;3.00;;;;;18.82;77.10;100481.59;5016745;28;45597;-60
2022/10/20 09:47:21;;;;;;;;;2.33;2.33;;;;;18.91;76.82;100476.34;5018945;28;45523;-60
2022/10/20 09:49:53;;;;;;;;;4.00;4.00;;;;;18.93;76.08;100477.06;5030307;28;45624;-59
2022/10/20 09:52:29;;;;;;;;;4.00;4.00;;;;;19.04;76.25;100477.75;5006476;28;45951;-59
2022/10/20 09:55:00;;;;;;;;;5.00;3.00;;;;;19.13;76.21;100486.81;5014189;28;45621;-60
2022/10/20 09:57:29;;;;;;;;;4.00;4.00;;;;;19.14;75.53;100477.72;5012308;28;46866;-60
2022/10/20 09:59:57;;;;;;;;;4.00;4.00;;;;;19.22;74.95;100477.88;5013541;28;47598;-59
2022/10/20 10:02:22;;;;;;;;;4.00;2.75;;;;;19.29;74.91;100489.78;5015013;28;45462;-58
2022/10/20 10:04:50;;;;;;;;;2.00;2.00;;;;;19.34;74.69;100474.03;5031644;28;45690;-60
2022/10/20 10:07:31;;;;;;;;;2.00;2.00;;;;;19.39;73.09;100477.13;5018465;28;45361;-59
2022/10/20 10:10:19;;;;;;;;;2.67;2.67;;;;;19.48;73.19;100477.25;5007326;28;45561;-72
2022/10/20 10:12:52;;;;;;;;;2.75;2.75;;;;;19.43;73.03;100480.41;4996458;28;45442;-63
2022/10/20 10:15:30;;;;;;;;;1.75;1.75;;;;;19.55;72.57;100470.31;4996445;28;45324;-60
2022/10/20 10:17:57;;;;;;;;;3.00;3.00;;;;;19.68;72.34;100465.44;4996656;28;45269;-62
2022/10/20 10:20:25;;;;;;;;;4.50;2.00;;;;;19.81;71.66;100460.56;4996216;28;45536;-68
2022/10/20 10:22:50;;;;;;;;;1.00;1.00;;;;;19.77;70.55;100464.53;5010152;28;46402;-61
2022/10/20 10:25:26;;;;;;;;;3.75;2.25;;;;;19.88;71.23;100458.97;5031796;28;45286;-63
2022/10/20 10:27:59;;;;;;;;;3.50;2.75;;;;;19.87;71.03;100443.78;5003453;28;45348;-64
2022/10/20 10:30:30;;;;;;;;;3.00;3.00;;;;;20.00;70.58;100462.31;5013012;28;45524;-60
2022/10/20 10:32:56;;;;;;;;;2.00;2.00;;;;;20.01;70.14;100443.28;5015313;28;45403;-62
2022/10/20 10:35:40;;;;;;;;;5.50;4.00;;;;;20.15;70.16;100447.31;5015270;28;45355;-62
2022/10/20 10:38:09;;;;;;;;;1.75;0.25;;;;;20.19;68.98;100447.88;5014464;28;45447;-61
2022/10/20 10:40:44;;;;;;;;;3.00;3.00;;;;;20.30;68.85;100444.94;5016050;28;45517;-59
2022/10/20 10:43:28;;;;;;;;;3.50;2.00;;;;;20.37;66.53;100451.44;5006596;28;45466;-57
2022/10/20 10:46:07;;;;;;;;;3.00;3.00;;;;;20.44;67.25;100451.69;5013975;28;45398;-59
2022/10/20 10:48:39;;;;;;;;;1.50;1.50;;;;;20.46;67.41;100439.78;5015586;28;45371;-59
2022/10/20 10:51:46;;;;;;;;;5.00;4.00;;;;;20.49;67.30;100434.06;5015389;28;45449;-58
2022/10/20 10:54:35;;;;;;;;;4.75;1.75;;;;;20.52;66.17;100432.88;5015092;28;45415;-58
2022/10/20 10:57:25;;;;;;;;;2.00;2.00;;;;;20.65;66.58;100413.59;5017841;28;45445;-58
2022/10/20 10:59:52;;;;;;;;;2.75;2.00;;;;;20.87;66.01;100430.19;5018983;28;45273;-59
2022/10/20 11:02:30;;;;;;;;;3.25;2.00;;;;;20.98;64.53;100423.69;5001754;28;45317;-57
2022/10/20 11:05:01;;;;;;;;;4.50;2.50;;;;;21.03;63.48;100420.50;5000098;28;45394;-58
2022/10/20 11:07:41;;;;;;;;;1.50;1.50;;;;;21.08;63.37;100416.31;5021918;28;45372;-59
2022/10/20 11:10:19;;;;;;;;;1.00;1.00;;;;;21.39;63.05;100413.19;5018521;28;45454;-59
2022/10/20 11:12:50;;;;;;;;;1.00;1.00;;;;;21.63;61.50;100409.75;5018812;28;45364;-58
2022/10/20 11:15:32;;;;;;;;;4.00;3.00;;;;;21.81;60.41;100396.13;5033565;28;45393;-58
2022/10/20 11:18:41;;;;;;;;;3.75;2.00;;;;;21.93;60.23;100402.94;5008540;28;45459;-59
2022/10/20 11:21:16;;;;;;;;;2.00;2.00;;;;;22.11;59.85;100401.00;4998611;28;45437;-58
2022/10/20 11:24:03;;;;;;;;;4.75;4.75;;;;;22.21;59.69;100396.28;5004792;28;45414;-60
2022/10/20 11:26:33;;;;;;;;;1.00;1.00;;;;;22.33;59.88;100384.13;5018411;28;45399;-60
2022/10/20 11:29:03;;;;;;;;;3.20;2.20;;;;;22.41;59.16;100385.16;5017117;28;45298;-59